sensor_id;sensor_type;location;lat;lon;timestamp;P1;durP1;ratioP1;P2;durP2;ratioP2
83141;SDS011;75194;51.180;5.972;2024-02-21T00:00:13;23.88;;;9.15;;
83141;SDS011;75194;51.180;5.972;2024-02-21T00:03:09;23.75;;;8.48;;
83141;SDS011;75194;51.180;5.972;2024-02-21T00:05:35;23.02;;;9.23;;
83141;SDS011;75194;51.180;5.972;2024-02-21T00:08:01;21.23;;;9.27;;
83141;SDS011;75194;51.180;5.972;2024-02-21T00:10:28;23.83;;;8.77;;
83141;SDS011;75194;51.180;5.972;2024-02-21T00:12:56;20.33;;;8.25;;
83141;SDS011;75194;51.180;5.972;2024-02-21T00:15:22;18.95;;;8.02;;
83141;SDS011;75194;51.180;5.972;2024-02-21T00:17:48;22.00;;;8.00;;
83141;SDS011;75194;51.180;5.972;2024-02-21T00:20:17;22.45;;;8.30;;
83141;SDS011;75194;51.180;5.972;2024-02-21T00:22:43;20.13;;;8.07;;
83141;SDS011;75194;51.180;5.972;2024-02-21T00:25:09;24.88;;;8.77;;
83141;SDS011;75194;51.180;5.972;2024-02-21T00:27:35;21.13;;;8.32;;
83141;SDS011;75194;51.180;5.972;2024-02-21T00:30:01;23.08;;;9.13;;
83141;SDS011;75194;51.180;5.972;2024-02-21T00:32:27;28.23;;;8.32;;
83141;SDS011;75194;51.180;5.972;2024-02-21T00:34:53;24.77;;;9.07;;
83141;SDS011;75194;51.180;5.972;2024-02-21T00:37:18;20.00;;;7.97;;
83141;SDS011;75194;51.180;5.972;2024-02-21T00:39:44;28.55;;;9.07;;
83141;SDS011;75194;51.180;5.972;2024-02-21T00:42:09;17.98;;;7.15;;
83141;SDS011;75194;51.180;5.972;2024-02-21T00:44:35;20.80;;;8.55;;
83141;SDS011;75194;51.180;5.972;2024-02-21T00:47:01;20.90;;;7.50;;
83141;SDS011;75194;51.180;5.972;2024-02-21T00:49:26;23.08;;;7.75;;
83141;SDS011;75194;51.180;5.972;2024-02-21T00:51:52;23.67;;;8.25;;
83141;SDS011;75194;51.180;5.972;2024-02-21T00:54:18;21.52;;;8.10;;
83141;SDS011;75194;51.180;5.972;2024-02-21T00:56:43;20.52;;;8.50;;
83141;SDS011;75194;51.180;5.972;2024-02-21T00:59:09;22.17;;;8.07;;
83141;SDS011;75194;51.180;5.972;2024-02-21T01:01:35;21.13;;;7.78;;
83141;SDS011;75194;51.180;5.972;2024-02-21T01:04:00;22.10;;;7.80;;
83141;SDS011;75194;51.180;5.972;2024-02-21T01:06:26;17.75;;;6.30;;
83141;SDS011;75194;51.180;5.972;2024-02-21T01:08:52;19.58;;;8.65;;
83141;SDS011;75194;51.180;5.972;2024-02-21T01:11:17;20.92;;;7.15;;
83141;SDS011;75194;51.180;5.972;2024-02-21T01:13:43;20.60;;;7.43;;
83141;SDS011;75194;51.180;5.972;2024-02-21T01:16:09;16.40;;;6.38;;
83141;SDS011;75194;51.180;5.972;2024-02-21T01:18:37;19.88;;;7.53;;
83141;SDS011;75194;51.180;5.972;2024-02-21T01:21:04;19.30;;;7.95;;
83141;SDS011;75194;51.180;5.972;2024-02-21T01:23:34;20.73;;;7.13;;
83141;SDS011;75194;51.180;5.972;2024-02-21T01:29:04;20.48;;;7.35;;
83141;SDS011;75194;51.180;5.972;2024-02-21T01:31:29;17.70;;;7.05;;
83141;SDS011;75194;51.180;5.972;2024-02-21T01:36:49;17.70;;;6.25;;
83141;SDS011;75194;51.180;5.972;2024-02-21T01:39:15;18.80;;;7.07;;
83141;SDS011;75194;51.180;5.972;2024-02-21T01:41:40;19.33;;;6.75;;
83141;SDS011;75194;51.180;5.972;2024-02-21T01:44:06;21.27;;;8.60;;
83141;SDS011;75194;51.180;5.972;2024-02-21T01:46:32;19.38;;;7.28;;
83141;SDS011;75194;51.180;5.972;2024-02-21T01:48:58;17.98;;;7.13;;
83141;SDS011;75194;51.180;5.972;2024-02-21T01:51:34;17.60;;;7.03;;
83141;SDS011;75194;51.180;5.972;2024-02-21T01:54:01;20.58;;;6.70;;
83141;SDS011;75194;51.180;5.972;2024-02-21T01:56:27;16.10;;;7.47;;
83141;SDS011;75194;51.180;5.972;2024-02-21T01:59:38;16.10;;;6.50;;
83141;SDS011;75194;51.180;5.972;2024-02-21T02:02:05;18.83;;;7.60;;
83141;SDS011;75194;51.180;5.972;2024-02-21T02:04:31;18.55;;;6.72;;
83141;SDS011;75194;51.180;5.972;2024-02-21T02:06:59;18.05;;;6.95;;
83141;SDS011;75194;51.180;5.972;2024-02-21T02:09:26;18.27;;;7.13;;
83141;SDS011;75194;51.180;5.972;2024-02-21T02:11:51;18.65;;;7.07;;
83141;SDS011;75194;51.180;5.972;2024-02-21T02:14:17;22.52;;;6.68;;
83141;SDS011;75194;51.180;5.972;2024-02-21T02:16:45;17.85;;;6.00;;
83141;SDS011;75194;51.180;5.972;2024-02-21T02:19:13;19.75;;;6.50;;
83141;SDS011;75194;51.180;5.972;2024-02-21T02:28:05;20.55;;;6.07;;
83141;SDS011;75194;51.180;5.972;2024-02-21T02:30:34;17.55;;;6.63;;
83141;SDS011;75194;51.180;5.972;2024-02-21T02:33:01;18.23;;;7.10;;
83141;SDS011;75194;51.180;5.972;2024-02-21T02:35:30;18.27;;;6.05;;
83141;SDS011;75194;51.180;5.972;2024-02-21T02:37:56;18.05;;;7.13;;
83141;SDS011;75194;51.180;5.972;2024-02-21T02:43:16;16.30;;;6.22;;
83141;SDS011;75194;51.180;5.972;2024-02-21T02:45:42;17.15;;;5.55;;
83141;SDS011;75194;51.180;5.972;2024-02-21T02:48:07;19.52;;;6.43;;
83141;SDS011;75194;51.180;5.972;2024-02-21T02:50:33;14.98;;;7.05;;
83141;SDS011;75194;51.180;5.972;2024-02-21T02:52:59;14.32;;;5.72;;
83141;SDS011;75194;51.180;5.972;2024-02-21T02:55:25;19.88;;;6.13;;
83141;SDS011;75194;51.180;5.972;2024-02-21T02:57:51;16.17;;;6.03;;
83141;SDS011;75194;51.180;5.972;2024-02-21T03:00:17;16.80;;;5.65;;
83141;SDS011;75194;51.180;5.972;2024-02-21T03:02:46;16.15;;;5.97;;
83141;SDS011;75194;51.180;5.972;2024-02-21T03:08:47;20.50;;;6.22;;
83141;SDS011;75194;51.180;5.972;2024-02-21T03:11:13;18.67;;;5.55;;
83141;SDS011;75194;51.180;5.972;2024-02-21T03:13:39;14.45;;;4.95;;
83141;SDS011;75194;51.180;5.972;2024-02-21T03:16:05;16.20;;;4.97;;
83141;SDS011;75194;51.180;5.972;2024-02-21T03:18:31;15.05;;;5.18;;
83141;SDS011;75194;51.180;5.972;2024-02-21T03:20:56;15.55;;;5.13;;
83141;SDS011;75194;51.180;5.972;2024-02-21T03:23:22;14.23;;;5.13;;
83141;SDS011;75194;51.180;5.972;2024-02-21T03:25:57;15.02;;;5.03;;
83141;SDS011;75194;51.180;5.972;2024-02-21T03:28:23;14.02;;;4.60;;
83141;SDS011;75194;51.180;5.972;2024-02-21T03:30:48;13.32;;;4.70;;
83141;SDS011;75194;51.180;5.972;2024-02-21T03:33:17;13.10;;;4.57;;
83141;SDS011;75194;51.180;5.972;2024-02-21T03:35:45;13.85;;;5.30;;
83141;SDS011;75194;51.180;5.972;2024-02-21T03:38:10;15.43;;;5.28;;
83141;SDS011;75194;51.180;5.972;2024-02-21T03:40:36;16.80;;;4.93;;
83141;SDS011;75194;51.180;5.972;2024-02-21T03:43:02;14.75;;;5.63;;
83141;SDS011;75194;51.180;5.972;2024-02-21T03:45:28;13.75;;;4.95;;
83141;SDS011;75194;51.180;5.972;2024-02-21T03:47:54;13.73;;;5.10;;
83141;SDS011;75194;51.180;5.972;2024-02-21T03:50:20;14.70;;;5.35;;
83141;SDS011;75194;51.180;5.972;2024-02-21T03:52:51;17.25;;;5.32;;
83141;SDS011;75194;51.180;5.972;2024-02-21T03:55:16;16.00;;;5.30;;
83141;SDS011;75194;51.180;5.972;2024-02-21T03:57:45;13.30;;;4.95;;
83141;SDS011;75194;51.180;5.972;2024-02-21T04:00:19;17.15;;;6.65;;
83141;SDS011;75194;51.180;5.972;2024-02-21T04:03:13;14.73;;;4.38;;
83141;SDS011;75194;51.180;5.972;2024-02-21T04:09:05;17.15;;;6.13;;
83141;SDS011;75194;51.180;5.972;2024-02-21T04:11:48;13.52;;;4.85;;
83141;SDS011;75194;51.180;5.972;2024-02-21T04:14:34;11.57;;;4.68;;
83141;SDS011;75194;51.180;5.972;2024-02-21T04:17:00;14.70;;;4.65;;
83141;SDS011;75194;51.180;5.972;2024-02-21T04:22:40;13.50;;;4.53;;
83141;SDS011;75194;51.180;5.972;2024-02-21T04:25:07;13.40;;;4.75;;
83141;SDS011;75194;51.180;5.972;2024-02-21T04:27:33;17.33;;;5.60;;
83141;SDS011;75194;51.180;5.972;2024-02-21T04:29:59;14.05;;;4.90;;
83141;SDS011;75194;51.180;5.972;2024-02-21T04:32:25;12.93;;;4.50;;
83141;SDS011;75194;51.180;5.972;2024-02-21T04:34:53;16.33;;;4.97;;
83141;SDS011;75194;51.180;5.972;2024-02-21T04:37:19;12.75;;;4.60;;
83141;SDS011;75194;51.180;5.972;2024-02-21T04:39:58;15.70;;;5.95;;
83141;SDS011;75194;51.180;5.972;2024-02-21T04:42:30;12.45;;;4.10;;
83141;SDS011;75194;51.180;5.972;2024-02-21T04:47:39;17.30;;;5.40;;
83141;SDS011;75194;51.180;5.972;2024-02-21T04:50:24;14.45;;;5.28;;
83141;SDS011;75194;51.180;5.972;2024-02-21T04:53:15;14.68;;;4.43;;
83141;SDS011;75194;51.180;5.972;2024-02-21T04:55:49;13.80;;;4.78;;
83141;SDS011;75194;51.180;5.972;2024-02-21T04:58:21;17.02;;;4.72;;
83141;SDS011;75194;51.180;5.972;2024-02-21T05:00:50;16.67;;;5.15;;
83141;SDS011;75194;51.180;5.972;2024-02-21T05:03:25;14.88;;;4.93;;
83141;SDS011;75194;51.180;5.972;2024-02-21T05:06:06;10.95;;;4.82;;
83141;SDS011;75194;51.180;5.972;2024-02-21T05:08:44;12.40;;;4.63;;
83141;SDS011;75194;51.180;5.972;2024-02-21T05:11:09;15.00;;;5.25;;
83141;SDS011;75194;51.180;5.972;2024-02-21T05:13:42;13.15;;;4.13;;
83141;SDS011;75194;51.180;5.972;2024-02-21T05:16:14;13.30;;;5.10;;
83141;SDS011;75194;51.180;5.972;2024-02-21T05:18:40;16.48;;;5.13;;
83141;SDS011;75194;51.180;5.972;2024-02-21T05:21:11;14.77;;;4.93;;
83141;SDS011;75194;51.180;5.972;2024-02-21T05:23:53;18.00;;;5.22;;
83141;SDS011;75194;51.180;5.972;2024-02-21T05:26:31;14.60;;;4.60;;
83141;SDS011;75194;51.180;5.972;2024-02-21T05:29:03;12.38;;;4.38;;
83141;SDS011;75194;51.180;5.972;2024-02-21T05:32:13;17.33;;;5.60;;
83141;SDS011;75194;51.180;5.972;2024-02-21T05:35:00;16.77;;;5.00;;
83141;SDS011;75194;51.180;5.972;2024-02-21T05:37:50;11.25;;;4.78;;
83141;SDS011;75194;51.180;5.972;2024-02-21T05:40:31;13.98;;;5.72;;
83141;SDS011;75194;51.180;5.972;2024-02-21T05:42:57;15.93;;;5.57;;
83141;SDS011;75194;51.180;5.972;2024-02-21T05:45:23;13.65;;;5.38;;
83141;SDS011;75194;51.180;5.972;2024-02-21T05:48:10;13.80;;;4.72;;
83141;SDS011;75194;51.180;5.972;2024-02-21T05:51:08;14.00;;;4.97;;
83141;SDS011;75194;51.180;5.972;2024-02-21T05:53:43;9.90;;;4.05;;
83141;SDS011;75194;51.180;5.972;2024-02-21T05:56:38;12.20;;;4.10;;
83141;SDS011;75194;51.180;5.972;2024-02-21T05:59:03;14.38;;;5.53;;
83141;SDS011;75194;51.180;5.972;2024-02-21T06:01:35;15.00;;;4.88;;
83141;SDS011;75194;51.180;5.972;2024-02-21T06:04:42;13.80;;;4.50;;
83141;SDS011;75194;51.180;5.972;2024-02-21T06:07:10;13.88;;;4.65;;
83141;SDS011;75194;51.180;5.972;2024-02-21T06:10:01;15.32;;;4.82;;
83141;SDS011;75194;51.180;5.972;2024-02-21T06:15:27;11.07;;;4.43;;
83141;SDS011;75194;51.180;5.972;2024-02-21T06:18:22;12.00;;;4.72;;
83141;SDS011;75194;51.180;5.972;2024-02-21T06:21:07;14.15;;;4.30;;
83141;SDS011;75194;51.180;5.972;2024-02-21T06:23:56;12.73;;;4.78;;
83141;SDS011;75194;51.180;5.972;2024-02-21T06:26:43;10.55;;;3.92;;
83141;SDS011;75194;51.180;5.972;2024-02-21T06:29:15;10.70;;;4.32;;
83141;SDS011;75194;51.180;5.972;2024-02-21T06:31:57;11.77;;;4.15;;
83141;SDS011;75194;51.180;5.972;2024-02-21T06:34:50;12.35;;;4.55;;
83141;SDS011;75194;51.180;5.972;2024-02-21T06:40:22;12.00;;;4.00;;
83141;SDS011;75194;51.180;5.972;2024-02-21T06:42:54;10.27;;;4.10;;
83141;SDS011;75194;51.180;5.972;2024-02-21T06:45:19;10.82;;;4.43;;
83141;SDS011;75194;51.180;5.972;2024-02-21T06:47:45;12.95;;;4.28;;
83141;SDS011;75194;51.180;5.972;2024-02-21T06:50:12;12.27;;;4.85;;
83141;SDS011;75194;51.180;5.972;2024-02-21T06:53:04;12.50;;;4.57;;
83141;SDS011;75194;51.180;5.972;2024-02-21T06:55:30;12.48;;;4.53;;
83141;SDS011;75194;51.180;5.972;2024-02-21T06:58:06;11.80;;;4.13;;
83141;SDS011;75194;51.180;5.972;2024-02-21T07:01:29;13.27;;;4.68;;
83141;SDS011;75194;51.180;5.972;2024-02-21T07:04:03;12.55;;;3.80;;
83141;SDS011;75194;51.180;5.972;2024-02-21T07:06:52;11.75;;;3.72;;
83141;SDS011;75194;51.180;5.972;2024-02-21T07:09:56;11.07;;;4.05;;
83141;SDS011;75194;51.180;5.972;2024-02-21T07:12:46;10.20;;;3.60;;
83141;SDS011;75194;51.180;5.972;2024-02-21T07:15:18;12.52;;;3.40;;
83141;SDS011;75194;51.180;5.972;2024-02-21T07:18:10;11.68;;;4.35;;
83141;SDS011;75194;51.180;5.972;2024-02-21T07:20:36;14.00;;;4.47;;
83141;SDS011;75194;51.180;5.972;2024-02-21T07:23:10;8.45;;;3.08;;
83141;SDS011;75194;51.180;5.972;2024-02-21T07:25:39;10.55;;;3.70;;
83141;SDS011;75194;51.180;5.972;2024-02-21T07:28:05;10.90;;;3.78;;
83141;SDS011;75194;51.180;5.972;2024-02-21T07:30:38;10.73;;;3.67;;
83141;SDS011;75194;51.180;5.972;2024-02-21T07:33:06;11.68;;;3.97;;
83141;SDS011;75194;51.180;5.972;2024-02-21T07:35:32;11.38;;;4.22;;
83141;SDS011;75194;51.180;5.972;2024-02-21T07:44:24;12.48;;;4.78;;
83141;SDS011;75194;51.180;5.972;2024-02-21T07:46:49;12.30;;;5.43;;
83141;SDS011;75194;51.180;5.972;2024-02-21T07:49:15;10.77;;;3.70;;
83141;SDS011;75194;51.180;5.972;2024-02-21T07:51:41;14.40;;;3.88;;
83141;SDS011;75194;51.180;5.972;2024-02-21T07:54:07;12.77;;;4.60;;
83141;SDS011;75194;51.180;5.972;2024-02-21T07:56:33;10.57;;;3.20;;
83141;SDS011;75194;51.180;5.972;2024-02-21T07:59:13;12.75;;;4.38;;
83141;SDS011;75194;51.180;5.972;2024-02-21T08:01:57;10.05;;;3.80;;
83141;SDS011;75194;51.180;5.972;2024-02-21T08:04:41;10.60;;;3.28;;
83141;SDS011;75194;51.180;5.972;2024-02-21T08:07:15;9.23;;;3.45;;
83141;SDS011;75194;51.180;5.972;2024-02-21T08:12:38;9.10;;;3.33;;
83141;SDS011;75194;51.180;5.972;2024-02-21T08:15:04;8.35;;;2.85;;
83141;SDS011;75194;51.180;5.972;2024-02-21T08:17:59;10.00;;;3.30;;
83141;SDS011;75194;51.180;5.972;2024-02-21T08:20:37;8.18;;;2.80;;
83141;SDS011;75194;51.180;5.972;2024-02-21T08:23:10;10.50;;;4.15;;
83141;SDS011;75194;51.180;5.972;2024-02-21T08:25:57;11.48;;;3.83;;
83141;SDS011;75194;51.180;5.972;2024-02-21T08:28:55;8.25;;;3.30;;
83141;SDS011;75194;51.180;5.972;2024-02-21T08:31:36;11.32;;;3.50;;
83141;SDS011;75194;51.180;5.972;2024-02-21T08:34:02;10.77;;;3.35;;
83141;SDS011;75194;51.180;5.972;2024-02-21T08:36:35;10.85;;;4.20;;
83141;SDS011;75194;51.180;5.972;2024-02-21T08:39:01;9.38;;;2.55;;
83141;SDS011;75194;51.180;5.972;2024-02-21T08:41:32;9.68;;;4.10;;
83141;SDS011;75194;51.180;5.972;2024-02-21T08:43:59;12.32;;;4.10;;
83141;SDS011;75194;51.180;5.972;2024-02-21T08:46:28;10.80;;;4.00;;
83141;SDS011;75194;51.180;5.972;2024-02-21T08:48:54;12.00;;;4.00;;
83141;SDS011;75194;51.180;5.972;2024-02-21T08:51:29;11.85;;;4.63;;
83141;SDS011;75194;51.180;5.972;2024-02-21T08:53:58;14.43;;;4.00;;
83141;SDS011;75194;51.180;5.972;2024-02-21T08:59:44;10.30;;;3.15;;
83141;SDS011;75194;51.180;5.972;2024-02-21T09:02:11;10.10;;;3.63;;
83141;SDS011;75194;51.180;5.972;2024-02-21T09:05:12;9.05;;;3.47;;
83141;SDS011;75194;51.180;5.972;2024-02-21T09:08:16;12.15;;;4.25;;
83141;SDS011;75194;51.180;5.972;2024-02-21T09:10:51;8.18;;;3.42;;
83141;SDS011;75194;51.180;5.972;2024-02-21T09:14:03;8.70;;;3.30;;
83141;SDS011;75194;51.180;5.972;2024-02-21T09:16:51;13.23;;;3.75;;
83141;SDS011;75194;51.180;5.972;2024-02-21T09:19:47;14.68;;;4.20;;
83141;SDS011;75194;51.180;5.972;2024-02-21T09:23:01;10.77;;;3.38;;
83141;SDS011;75194;51.180;5.972;2024-02-21T09:25:18;9.23;;;2.88;;
83141;SDS011;75194;51.180;5.972;2024-02-21T09:27:44;12.27;;;3.20;;
83141;SDS011;75194;51.180;5.972;2024-02-21T09:30:36;11.35;;;3.28;;
83141;SDS011;75194;51.180;5.972;2024-02-21T09:33:03;13.23;;;4.13;;
83141;SDS011;75194;51.180;5.972;2024-02-21T09:39:23;12.30;;;5.00;;
83141;SDS011;75194;51.180;5.972;2024-02-21T09:41:59;12.10;;;3.28;;
83141;SDS011;75194;51.180;5.972;2024-02-21T09:45:02;9.60;;;3.33;;
83141;SDS011;75194;51.180;5.972;2024-02-21T09:51:30;10.65;;;3.03;;
83141;SDS011;75194;51.180;5.972;2024-02-21T09:54:36;9.05;;;2.70;;
83141;SDS011;75194;51.180;5.972;2024-02-21T09:57:02;8.02;;;3.22;;
83141;SDS011;75194;51.180;5.972;2024-02-21T09:59:31;9.70;;;2.95;;
83141;SDS011;75194;51.180;5.972;2024-02-21T10:02:20;11.25;;;3.80;;
83141;SDS011;75194;51.180;5.972;2024-02-21T10:04:47;10.23;;;4.13;;
83141;SDS011;75194;51.180;5.972;2024-02-21T10:10:04;12.52;;;3.40;;
83141;SDS011;75194;51.180;5.972;2024-02-21T10:12:47;9.07;;;2.85;;
83141;SDS011;75194;51.180;5.972;2024-02-21T10:15:27;9.05;;;3.35;;
83141;SDS011;75194;51.180;5.972;2024-02-21T10:18:03;10.50;;;3.38;;
83141;SDS011;75194;51.180;5.972;2024-02-21T10:20:29;8.57;;;3.70;;
83141;SDS011;75194;51.180;5.972;2024-02-21T10:26:20;10.38;;;4.00;;
83141;SDS011;75194;51.180;5.972;2024-02-21T10:28:54;12.15;;;3.75;;
83141;SDS011;75194;51.180;5.972;2024-02-21T10:31:39;9.73;;;3.80;;
83141;SDS011;75194;51.180;5.972;2024-02-21T10:34:11;11.52;;;4.10;;
83141;SDS011;75194;51.180;5.972;2024-02-21T10:37:03;7.80;;;3.70;;
83141;SDS011;75194;51.180;5.972;2024-02-21T10:39:34;15.48;;;3.58;;
83141;SDS011;75194;51.180;5.972;2024-02-21T10:42:04;12.75;;;4.13;;
83141;SDS011;75194;51.180;5.972;2024-02-21T10:44:34;10.95;;;3.50;;
83141;SDS011;75194;51.180;5.972;2024-02-21T10:47:07;10.60;;;3.47;;
83141;SDS011;75194;51.180;5.972;2024-02-21T10:49:36;10.35;;;3.85;;
83141;SDS011;75194;51.180;5.972;2024-02-21T10:52:13;12.40;;;3.88;;
83141;SDS011;75194;51.180;5.972;2024-02-21T10:57:41;9.90;;;3.00;;
83141;SDS011;75194;51.180;5.972;2024-02-21T11:00:11;8.60;;;2.67;;
83141;SDS011;75194;51.180;5.972;2024-02-21T11:02:40;10.18;;;3.17;;
83141;SDS011;75194;51.180;5.972;2024-02-21T11:05:06;11.65;;;3.13;;
83141;SDS011;75194;51.180;5.972;2024-02-21T11:07:33;9.68;;;3.20;;
83141;SDS011;75194;51.180;5.972;2024-02-21T11:10:20;8.63;;;3.10;;
83141;SDS011;75194;51.180;5.972;2024-02-21T11:12:52;10.90;;;3.55;;
83141;SDS011;75194;51.180;5.972;2024-02-21T11:15:24;9.07;;;3.35;;
83141;SDS011;75194;51.180;5.972;2024-02-21T11:18:02;8.32;;;3.40;;
83141;SDS011;75194;51.180;5.972;2024-02-21T11:20:34;10.50;;;3.20;;
83141;SDS011;75194;51.180;5.972;2024-02-21T11:23:01;9.43;;;3.22;;
83141;SDS011;75194;51.180;5.972;2024-02-21T11:25:47;9.30;;;3.38;;
83141;SDS011;75194;51.180;5.972;2024-02-21T11:28:34;9.90;;;2.65;;
83141;SDS011;75194;51.180;5.972;2024-02-21T11:31:26;10.50;;;3.22;;
83141;SDS011;75194;51.180;5.972;2024-02-21T11:34:16;13.10;;;3.80;;
83141;SDS011;75194;51.180;5.972;2024-02-21T11:36:46;8.52;;;3.45;;
83141;SDS011;75194;51.180;5.972;2024-02-21T11:41:46;10.25;;;3.42;;
83141;SDS011;75194;51.180;5.972;2024-02-21T11:46:38;11.10;;;3.15;;
83141;SDS011;75194;51.180;5.972;2024-02-21T11:49:04;12.13;;;3.45;;
83141;SDS011;75194;51.180;5.972;2024-02-21T11:51:31;12.15;;;3.42;;
83141;SDS011;75194;51.180;5.972;2024-02-21T11:53:56;9.35;;;2.50;;
83141;SDS011;75194;51.180;5.972;2024-02-21T11:56:36;8.40;;;2.75;;
83141;SDS011;75194;51.180;5.972;2024-02-21T12:05:05;9.48;;;2.63;;
83141;SDS011;75194;51.180;5.972;2024-02-21T12:08:07;9.43;;;3.53;;
83141;SDS011;75194;51.180;5.972;2024-02-21T12:10:49;8.63;;;3.90;;
83141;SDS011;75194;51.180;5.972;2024-02-21T12:17:13;8.57;;;3.90;;
83141;SDS011;75194;51.180;5.972;2024-02-21T12:19:39;8.18;;;3.00;;
83141;SDS011;75194;51.180;5.972;2024-02-21T12:22:08;9.70;;;3.28;;
83141;SDS011;75194;51.180;5.972;2024-02-21T12:31:28;14.00;;;3.78;;
83141;SDS011;75194;51.180;5.972;2024-02-21T12:34:40;10.65;;;3.15;;
83141;SDS011;75194;51.180;5.972;2024-02-21T12:37:06;6.90;;;3.28;;
83141;SDS011;75194;51.180;5.972;2024-02-21T12:39:47;10.77;;;2.38;;
83141;SDS011;75194;51.180;5.972;2024-02-21T12:42:40;11.38;;;4.18;;
83141;SDS011;75194;51.180;5.972;2024-02-21T12:45:51;10.95;;;3.92;;
83141;SDS011;75194;51.180;5.972;2024-02-21T12:48:53;9.63;;;3.35;;
83141;SDS011;75194;51.180;5.972;2024-02-21T12:51:22;11.05;;;3.72;;
83141;SDS011;75194;51.180;5.972;2024-02-21T12:54:31;8.80;;;3.40;;
83141;SDS011;75194;51.180;5.972;2024-02-21T12:57:07;9.60;;;3.20;;
83141;SDS011;75194;51.180;5.972;2024-02-21T13:00:08;11.80;;;3.20;;
83141;SDS011;75194;51.180;5.972;2024-02-21T13:02:41;8.00;;;3.20;;
83141;SDS011;75194;51.180;5.972;2024-02-21T13:05:08;11.20;;;3.83;;
83141;SDS011;75194;51.180;5.972;2024-02-21T13:07:52;10.02;;;3.53;;
83141;SDS011;75194;51.180;5.972;2024-02-21T13:10:40;9.38;;;3.35;;
83141;SDS011;75194;51.180;5.972;2024-02-21T13:13:26;6.60;;;2.60;;
83141;SDS011;75194;51.180;5.972;2024-02-21T13:16:32;7.50;;;3.03;;
83141;SDS011;75194;51.180;5.972;2024-02-21T13:21:34;9.10;;;3.10;;
83141;SDS011;75194;51.180;5.972;2024-02-21T13:24:01;7.45;;;2.72;;
83141;SDS011;75194;51.180;5.972;2024-02-21T13:26:57;10.05;;;2.75;;
83141;SDS011;75194;51.180;5.972;2024-02-21T13:29:26;9.52;;;3.17;;
83141;SDS011;75194;51.180;5.972;2024-02-21T13:31:51;9.75;;;3.35;;
83141;SDS011;75194;51.180;5.972;2024-02-21T13:34:33;8.40;;;3.20;;
83141;SDS011;75194;51.180;5.972;2024-02-21T13:40:14;8.23;;;2.83;;
83141;SDS011;75194;51.180;5.972;2024-02-21T13:43:10;8.93;;;2.90;;
83141;SDS011;75194;51.180;5.972;2024-02-21T13:46:07;8.30;;;2.60;;
83141;SDS011;75194;51.180;5.972;2024-02-21T13:48:41;8.73;;;3.17;;
83141;SDS011;75194;51.180;5.972;2024-02-21T13:51:33;10.32;;;2.60;;
83141;SDS011;75194;51.180;5.972;2024-02-21T13:54:22;7.68;;;2.63;;
83141;SDS011;75194;51.180;5.972;2024-02-21T13:57:07;8.75;;;3.03;;
83141;SDS011;75194;51.180;5.972;2024-02-21T13:59:34;10.25;;;2.50;;
83141;SDS011;75194;51.180;5.972;2024-02-21T14:02:54;8.93;;;2.53;;
83141;SDS011;75194;51.180;5.972;2024-02-21T14:05:34;7.55;;;2.35;;
83141;SDS011;75194;51.180;5.972;2024-02-21T14:08:05;7.78;;;2.58;;
83141;SDS011;75194;51.180;5.972;2024-02-21T14:10:49;6.85;;;2.53;;
83141;SDS011;75194;51.180;5.972;2024-02-21T14:13:25;6.88;;;1.73;;
83141;SDS011;75194;51.180;5.972;2024-02-21T14:15:53;7.95;;;2.50;;
83141;SDS011;75194;51.180;5.972;2024-02-21T14:19:10;7.68;;;2.13;;
83141;SDS011;75194;51.180;5.972;2024-02-21T14:22:31;13.95;;;4.13;;
83141;SDS011;75194;51.180;5.972;2024-02-21T14:31:38;19.88;;;6.05;;
83141;SDS011;75194;51.180;5.972;2024-02-21T14:34:28;15.95;;;5.20;;
83141;SDS011;75194;51.180;5.972;2024-02-21T14:37:31;13.93;;;3.20;;
83141;SDS011;75194;51.180;5.972;2024-02-21T14:40:07;12.13;;;3.88;;
83141;SDS011;75194;51.180;5.972;2024-02-21T14:43:11;11.43;;;3.00;;
83141;SDS011;75194;51.180;5.972;2024-02-21T14:45:37;15.25;;;5.68;;
83141;SDS011;75194;51.180;5.972;2024-02-21T14:48:05;14.82;;;5.25;;
83141;SDS011;75194;51.180;5.972;2024-02-21T14:50:32;21.35;;;8.50;;
83141;SDS011;75194;51.180;5.972;2024-02-21T14:59:43;19.75;;;7.20;;
83141;SDS011;75194;51.180;5.972;2024-02-21T15:02:21;17.23;;;6.78;;
83141;SDS011;75194;51.180;5.972;2024-02-21T15:04:50;13.65;;;6.43;;
83141;SDS011;75194;51.180;5.972;2024-02-21T15:07:16;11.75;;;5.22;;
83141;SDS011;75194;51.180;5.972;2024-02-21T15:09:42;10.23;;;3.50;;
83141;SDS011;75194;51.180;5.972;2024-02-21T15:12:08;9.23;;;3.42;;
83141;SDS011;75194;51.180;5.972;2024-02-21T15:14:34;9.18;;;3.25;;
83141;SDS011;75194;51.180;5.972;2024-02-21T15:17:18;6.95;;;2.22;;
83141;SDS011;75194;51.180;5.972;2024-02-21T15:19:47;8.38;;;2.20;;
83141;SDS011;75194;51.180;5.972;2024-02-21T15:22:13;8.43;;;2.78;;
83141;SDS011;75194;51.180;5.972;2024-02-21T15:24:39;8.68;;;2.33;;
83141;SDS011;75194;51.180;5.972;2024-02-21T15:27:06;8.82;;;2.20;;
83141;SDS011;75194;51.180;5.972;2024-02-21T15:29:36;7.43;;;2.10;;
83141;SDS011;75194;51.180;5.972;2024-02-21T15:32:02;6.88;;;2.33;;
83141;SDS011;75194;51.180;5.972;2024-02-21T15:34:28;7.15;;;2.10;;
83141;SDS011;75194;51.180;5.972;2024-02-21T15:36:54;7.00;;;2.88;;
83141;SDS011;75194;51.180;5.972;2024-02-21T15:39:19;8.80;;;3.15;;
83141;SDS011;75194;51.180;5.972;2024-02-21T15:41:45;7.05;;;1.85;;
83141;SDS011;75194;51.180;5.972;2024-02-21T15:44:11;5.20;;;1.70;;
83141;SDS011;75194;51.180;5.972;2024-02-21T15:46:40;10.07;;;2.35;;
83141;SDS011;75194;51.180;5.972;2024-02-21T15:49:06;10.35;;;3.35;;
83141;SDS011;75194;51.180;5.972;2024-02-21T15:55:29;6.93;;;1.90;;
83141;SDS011;75194;51.180;5.972;2024-02-21T16:01:23;5.93;;;2.42;;
83141;SDS011;75194;51.180;5.972;2024-02-21T16:04:00;7.40;;;2.50;;
83141;SDS011;75194;51.180;5.972;2024-02-21T16:06:26;7.00;;;2.28;;
83141;SDS011;75194;51.180;5.972;2024-02-21T16:08:53;8.80;;;2.45;;
83141;SDS011;75194;51.180;5.972;2024-02-21T16:11:19;6.10;;;2.22;;
83141;SDS011;75194;51.180;5.972;2024-02-21T16:13:54;6.93;;;2.30;;
83141;SDS011;75194;51.180;5.972;2024-02-21T16:17:31;6.32;;;1.75;;
83141;SDS011;75194;51.180;5.972;2024-02-21T16:20:34;8.88;;;2.83;;
83141;SDS011;75194;51.180;5.972;2024-02-21T16:22:59;6.68;;;2.30;;
83141;SDS011;75194;51.180;5.972;2024-02-21T16:25:37;5.50;;;1.95;;
83141;SDS011;75194;51.180;5.972;2024-02-21T16:34:29;6.75;;;2.28;;
83141;SDS011;75194;51.180;5.972;2024-02-21T16:37:41;5.93;;;2.10;;
83141;SDS011;75194;51.180;5.972;2024-02-21T16:40:42;6.40;;;1.75;;
83141;SDS011;75194;51.180;5.972;2024-02-21T16:43:13;6.38;;;2.38;;
83141;SDS011;75194;51.180;5.972;2024-02-21T16:45:40;8.15;;;2.50;;
83141;SDS011;75194;51.180;5.972;2024-02-21T16:48:06;6.07;;;2.25;;
83141;SDS011;75194;51.180;5.972;2024-02-21T16:50:33;7.32;;;2.40;;
83141;SDS011;75194;51.180;5.972;2024-02-21T16:52:58;7.72;;;2.83;;
83141;SDS011;75194;51.180;5.972;2024-02-21T16:55:30;7.90;;;1.95;;
83141;SDS011;75194;51.180;5.972;2024-02-21T16:57:59;7.47;;;2.20;;
83141;SDS011;75194;51.180;5.972;2024-02-21T17:00:29;8.10;;;2.40;;
83141;SDS011;75194;51.180;5.972;2024-02-21T17:02:55;7.45;;;2.42;;
83141;SDS011;75194;51.180;5.972;2024-02-21T17:05:20;5.30;;;1.35;;
83141;SDS011;75194;51.180;5.972;2024-02-21T17:07:50;6.72;;;3.78;;
83141;SDS011;75194;51.180;5.972;2024-02-21T17:10:19;7.40;;;3.05;;
83141;SDS011;75194;51.180;5.972;2024-02-21T17:12:45;6.32;;;2.15;;
83141;SDS011;75194;51.180;5.972;2024-02-21T17:15:20;7.95;;;2.40;;
83141;SDS011;75194;51.180;5.972;2024-02-21T17:21:36;7.32;;;2.20;;
83141;SDS011;75194;51.180;5.972;2024-02-21T17:24:22;6.07;;;2.30;;